sensor_id;sensor_type;location;lat;lon;timestamp;temperature;humidity
57026;DHT22;43961;52.940;6.834;2022-08-01T00:01:05;18.40;99.90
57026;DHT22;43961;52.940;6.834;2022-08-01T00:03:30;18.40;99.90
57026;DHT22;43961;52.940;6.834;2022-08-01T00:05:56;18.40;99.90
57026;DHT22;43961;52.940;6.834;2022-08-01T00:08:22;18.40;99.90
57026;DHT22;43961;52.940;6.834;2022-08-01T00:10:47;18.40;99.90
57026;DHT22;43961;52.940;6.834;2022-08-01T00:13:13;18.40;99.90
57026;DHT22;43961;52.940;6.834;2022-08-01T00:15:40;18.40;99.90
57026;DHT22;43961;52.940;6.834;2022-08-01T00:18:05;18.40;99.90
57026;DHT22;43961;52.940;6.834;2022-08-01T00:20:31;18.30;99.90
57026;DHT22;43961;52.940;6.834;2022-08-01T00:22:56;18.40;99.90
57026;DHT22;43961;52.940;6.834;2022-08-01T00:25:22;18.40;99.90
57026;DHT22;43961;52.940;6.834;2022-08-01T00:27:48;18.40;99.90
57026;DHT22;43961;52.940;6.834;2022-08-01T00:30:14;18.40;99.90
57026;DHT22;43961;52.940;6.834;2022-08-01T00:32:40;18.40;99.90
57026;DHT22;43961;52.940;6.834;2022-08-01T00:35:06;18.40;99.90
57026;DHT22;43961;52.940;6.834;2022-08-01T00:37:32;18.30;99.90
57026;DHT22;43961;52.940;6.834;2022-08-01T00:39:57;18.30;99.90
57026;DHT22;43961;52.940;6.834;2022-08-01T00:42:23;18.30;99.90
57026;DHT22;43961;52.940;6.834;2022-08-01T00:44:49;18.30;99.90
57026;DHT22;43961;52.940;6.834;2022-08-01T00:47:14;18.30;99.90
57026;DHT22;43961;52.940;6.834;2022-08-01T00:49:40;18.30;99.90
57026;DHT22;43961;52.940;6.834;2022-08-01T00:52:06;18.30;99.90
57026;DHT22;43961;52.940;6.834;2022-08-01T00:54:33;18.30;99.90
57026;DHT22;43961;52.940;6.834;2022-08-01T00:56:59;18.30;99.90
57026;DHT22;43961;52.940;6.834;2022-08-01T00:59:25;18.30;99.90
57026;DHT22;43961;52.940;6.834;2022-08-01T01:01:51;18.30;99.90
57026;DHT22;43961;52.940;6.834;2022-08-01T01:04:17;18.30;99.90
57026;DHT22;43961;52.940;6.834;2022-08-01T01:15:33;18.30;99.90
57026;DHT22;43961;52.940;6.834;2022-08-01T01:18:24;18.30;99.90
57026;DHT22;43961;52.940;6.834;2022-08-01T01:21:02;18.20;99.90
57026;DHT22;43961;52.940;6.834;2022-08-01T01:23:51;18.20;99.90
57026;DHT22;43961;52.940;6.834;2022-08-01T01:26:36;18.20;99.90
57026;DHT22;43961;52.940;6.834;2022-08-01T01:29:17;18.20;99.90
57026;DHT22;43961;52.940;6.834;2022-08-01T01:31:47;18.10;99.90
57026;DHT22;43961;52.940;6.834;2022-08-01T01:34:15;18.10;99.90
57026;DHT22;43961;52.940;6.834;2022-08-01T01:36:43;18.10;99.90
57026;DHT22;43961;52.940;6.834;2022-08-01T01:39:11;18.10;99.90
57026;DHT22;43961;52.940;6.834;2022-08-01T01:41:38;18.10;99.90
57026;DHT22;43961;52.940;6.834;2022-08-01T01:44:05;18.10;99.90
57026;DHT22;43961;52.940;6.834;2022-08-01T01:46:32;18.10;99.90
57026;DHT22;43961;52.940;6.834;2022-08-01T01:48:58;18.10;99.90
57026;DHT22;43961;52.940;6.834;2022-08-01T01:51:25;18.10;99.90
57026;DHT22;43961;52.940;6.834;2022-08-01T01:53:53;18.10;99.90
57026;DHT22;43961;52.940;6.834;2022-08-01T01:56:20;18.00;99.90
57026;DHT22;43961;52.940;6.834;2022-08-01T01:58:53;18.00;99.90
57026;DHT22;43961;52.940;6.834;2022-08-01T02:01:21;18.00;99.90
57026;DHT22;43961;52.940;6.834;2022-08-01T02:03:46;18.10;99.90
57026;DHT22;43961;52.940;6.834;2022-08-01T02:06:14;18.10;99.90
57026;DHT22;43961;52.940;6.834;2022-08-01T02:08:42;18.00;99.90
57026;DHT22;43961;52.940;6.834;2022-08-01T02:11:09;18.10;99.90
57026;DHT22;43961;52.940;6.834;2022-08-01T02:13:48;18.10;99.90
57026;DHT22;43961;52.940;6.834;2022-08-01T02:16:16;18.10;99.90
57026;DHT22;43961;52.940;6.834;2022-08-01T02:18:42;18.10;99.90
57026;DHT22;43961;52.940;6.834;2022-08-01T02:21:09;18.10;99.90
57026;DHT22;43961;52.940;6.834;2022-08-01T02:23:38;18.10;99.90
57026;DHT22;43961;52.940;6.834;2022-08-01T02:26:13;18.10;99.90
57026;DHT22;43961;52.940;6.834;2022-08-01T02:28:49;18.00;99.90
57026;DHT22;43961;52.940;6.834;2022-08-01T02:31:18;18.00;99.90
57026;DHT22;43961;52.940;6.834;2022-08-01T02:33:48;18.00;99.90
57026;DHT22;43961;52.940;6.834;2022-08-01T02:36:16;18.00;99.90
57026;DHT22;43961;52.940;6.834;2022-08-01T02:38:45;17.90;99.90
57026;DHT22;43961;52.940;6.834;2022-08-01T02:41:17;17.90;99.90
57026;DHT22;43961;52.940;6.834;2022-08-01T02:43:48;17.90;99.90
57026;DHT22;43961;52.940;6.834;2022-08-01T02:46:23;17.80;99.90
57026;DHT22;43961;52.940;6.834;2022-08-01T02:48:52;17.80;99.90
57026;DHT22;43961;52.940;6.834;2022-08-01T02:51:19;17.80;99.90
57026;DHT22;43961;52.940;6.834;2022-08-01T02:53:47;17.80;99.90
57026;DHT22;43961;52.940;6.834;2022-08-01T02:56:13;17.80;99.90
57026;DHT22;43961;52.940;6.834;2022-08-01T02:58:41;17.80;99.90
57026;DHT22;43961;52.940;6.834;2022-08-01T03:01:08;17.80;99.90
57026;DHT22;43961;52.940;6.834;2022-08-01T03:03:37;17.80;99.90
57026;DHT22;43961;52.940;6.834;2022-08-01T03:06:03;17.80;99.90
57026;DHT22;43961;52.940;6.834;2022-08-01T03:08:30;17.80;99.90
57026;DHT22;43961;52.940;6.834;2022-08-01T03:10:58;17.70;99.90
57026;DHT22;43961;52.940;6.834;2022-08-01T03:13:25;17.70;99.90
57026;DHT22;43961;52.940;6.834;2022-08-01T03:15:51;17.70;99.90
57026;DHT22;43961;52.940;6.834;2022-08-01T03:18:18;17.60;99.90
57026;DHT22;43961;52.940;6.834;2022-08-01T03:20:45;17.60;99.90
57026;DHT22;43961;52.940;6.834;2022-08-01T03:23:12;17.70;99.90
57026;DHT22;43961;52.940;6.834;2022-08-01T03:25:40;17.60;99.90
57026;DHT22;43961;52.940;6.834;2022-08-01T03:28:08;17.60;99.90
57026;DHT22;43961;52.940;6.834;2022-08-01T03:30:36;17.60;99.90
57026;DHT22;43961;52.940;6.834;2022-08-01T03:33:03;17.60;99.90
57026;DHT22;43961;52.940;6.834;2022-08-01T03:35:32;17.60;99.90
57026;DHT22;43961;52.940;6.834;2022-08-01T03:38:00;17.60;99.90
57026;DHT22;43961;52.940;6.834;2022-08-01T03:40:40;17.60;99.90
57026;DHT22;43961;52.940;6.834;2022-08-01T03:43:36;17.60;99.90
57026;DHT22;43961;52.940;6.834;2022-08-01T03:46:17;17.50;99.90
57026;DHT22;43961;52.940;6.834;2022-08-01T03:48:48;17.50;99.90
57026;DHT22;43961;52.940;6.834;2022-08-01T03:51:18;17.50;99.90
57026;DHT22;43961;52.940;6.834;2022-08-01T03:53:45;17.50;99.90
57026;DHT22;43961;52.940;6.834;2022-08-01T03:56:13;17.40;99.90
57026;DHT22;43961;52.940;6.834;2022-08-01T03:58:41;17.40;99.90
57026;DHT22;43961;52.940;6.834;2022-08-01T04:01:08;17.40;99.90
57026;DHT22;43961;52.940;6.834;2022-08-01T04:03:36;17.40;99.90
57026;DHT22;43961;52.940;6.834;2022-08-01T04:06:05;17.30;99.90
57026;DHT22;43961;52.940;6.834;2022-08-01T04:08:35;17.40;99.90
57026;DHT22;43961;52.940;6.834;2022-08-01T04:11:01;17.30;99.90
57026;DHT22;43961;52.940;6.834;2022-08-01T04:13:27;17.30;99.90
57026;DHT22;43961;52.940;6.834;2022-08-01T04:15:52;17.30;99.90
57026;DHT22;43961;52.940;6.834;2022-08-01T04:18:18;17.30;99.90
57026;DHT22;43961;52.940;6.834;2022-08-01T04:20:46;17.30;99.90
57026;DHT22;43961;52.940;6.834;2022-08-01T04:23:13;17.30;99.90
57026;DHT22;43961;52.940;6.834;2022-08-01T04:25:41;17.30;99.90
57026;DHT22;43961;52.940;6.834;2022-08-01T04:28:10;17.30;99.90
57026;DHT22;43961;52.940;6.834;2022-08-01T04:30:44;17.30;99.90
57026;DHT22;43961;52.940;6.834;2022-08-01T04:33:14;17.30;99.90
57026;DHT22;43961;52.940;6.834;2022-08-01T04:35:44;17.30;99.90
57026;DHT22;43961;52.940;6.834;2022-08-01T04:38:17;17.30;99.90
57026;DHT22;43961;52.940;6.834;2022-08-01T04:40:45;17.30;99.90
57026;DHT22;43961;52.940;6.834;2022-08-01T04:43:11;17.30;99.90
57026;DHT22;43961;52.940;6.834;2022-08-01T04:45:38;17.30;99.90
57026;DHT22;43961;52.940;6.834;2022-08-01T04:48:08;17.30;99.90
57026;DHT22;43961;52.940;6.834;2022-08-01T04:50:35;17.30;99.90
57026;DHT22;43961;52.940;6.834;2022-08-01T04:53:03;17.30;99.90
57026;DHT22;43961;52.940;6.834;2022-08-01T04:55:29;17.20;99.90
57026;DHT22;43961;52.940;6.834;2022-08-01T04:57:56;17.20;99.90
57026;DHT22;43961;52.940;6.834;2022-08-01T05:00:22;17.30;99.90
57026;DHT22;43961;52.940;6.834;2022-08-01T05:02:48;17.20;99.90
57026;DHT22;43961;52.940;6.834;2022-08-01T05:05:13;17.20;99.90
57026;DHT22;43961;52.940;6.834;2022-08-01T05:07:40;17.20;99.90
57026;DHT22;43961;52.940;6.834;2022-08-01T05:10:06;17.20;99.90
57026;DHT22;43961;52.940;6.834;2022-08-01T05:12:32;17.20;99.90
57026;DHT22;43961;52.940;6.834;2022-08-01T05:14:59;17.20;99.90
57026;DHT22;43961;52.940;6.834;2022-08-01T05:17:26;17.10;99.90
57026;DHT22;43961;52.940;6.834;2022-08-01T05:19:51;17.10;99.90
57026;DHT22;43961;52.940;6.834;2022-08-01T05:22:17;17.10;99.90
57026;DHT22;43961;52.940;6.834;2022-08-01T05:24:43;17.00;99.90
57026;DHT22;43961;52.940;6.834;2022-08-01T05:27:08;17.00;99.90
57026;DHT22;43961;52.940;6.834;2022-08-01T05:29:34;17.00;99.90
57026;DHT22;43961;52.940;6.834;2022-08-01T05:32:00;17.00;99.90
57026;DHT22;43961;52.940;6.834;2022-08-01T05:34:26;17.00;99.90
57026;DHT22;43961;52.940;6.834;2022-08-01T05:36:53;17.00;99.90
57026;DHT22;43961;52.940;6.834;2022-08-01T05:39:18;17.00;99.90
57026;DHT22;43961;52.940;6.834;2022-08-01T05:41:44;17.00;99.90
57026;DHT22;43961;52.940;6.834;2022-08-01T05:44:10;17.00;99.90
57026;DHT22;43961;52.940;6.834;2022-08-01T05:46:36;17.00;99.90
57026;DHT22;43961;52.940;6.834;2022-08-01T05:49:02;17.00;99.90
57026;DHT22;43961;52.940;6.834;2022-08-01T05:51:28;17.00;99.90
57026;DHT22;43961;52.940;6.834;2022-08-01T05:53:54;17.00;99.90
57026;DHT22;43961;52.940;6.834;2022-08-01T05:56:21;17.00;99.90
57026;DHT22;43961;52.940;6.834;2022-08-01T05:58:47;17.00;99.90
57026;DHT22;43961;52.940;6.834;2022-08-01T06:01:13;16.90;99.90
57026;DHT22;43961;52.940;6.834;2022-08-01T06:03:39;17.00;99.90
57026;DHT22;43961;52.940;6.834;2022-08-01T06:06:05;16.90;99.90
57026;DHT22;43961;52.940;6.834;2022-08-01T06:08:31;17.00;99.90
57026;DHT22;43961;52.940;6.834;2022-08-01T06:10:57;17.00;99.90
57026;DHT22;43961;52.940;6.834;2022-08-01T06:13:23;17.10;99.90
57026;DHT22;43961;52.940;6.834;2022-08-01T06:15:49;17.00;99.90
57026;DHT22;43961;52.940;6.834;2022-08-01T06:18:15;17.00;99.90
57026;DHT22;43961;52.940;6.834;2022-08-01T06:20:40;17.00;99.90
57026;DHT22;43961;52.940;6.834;2022-08-01T06:23:06;17.00;99.90
57026;DHT22;43961;52.940;6.834;2022-08-01T06:25:32;17.10;99.90
57026;DHT22;43961;52.940;6.834;2022-08-01T06:27:59;17.10;99.90
57026;DHT22;43961;52.940;6.834;2022-08-01T06:30:25;17.10;99.90
57026;DHT22;43961;52.940;6.834;2022-08-01T06:32:50;17.10;99.90
57026;DHT22;43961;52.940;6.834;2022-08-01T06:35:16;17.10;99.90
57026;DHT22;43961;52.940;6.834;2022-08-01T06:37:42;17.10;99.90
57026;DHT22;43961;52.940;6.834;2022-08-01T06:40:11;17.10;99.90
57026;DHT22;43961;52.940;6.834;2022-08-01T06:42:37;17.10;99.90
57026;DHT22;43961;52.940;6.834;2022-08-01T06:45:05;17.10;99.90
57026;DHT22;43961;52.940;6.834;2022-08-01T06:47:32;17.20;99.90
57026;DHT22;43961;52.940;6.834;2022-08-01T06:49:58;17.20;99.90
57026;DHT22;43961;52.940;6.834;2022-08-01T06:52:24;17.20;99.90
57026;DHT22;43961;52.940;6.834;2022-08-01T06:54:50;17.30;99.90
57026;DHT22;43961;52.940;6.834;2022-08-01T06:57:16;17.30;99.90
57026;DHT22;43961;52.940;6.834;2022-08-01T06:59:41;17.30;99.90
57026;DHT22;43961;52.940;6.834;2022-08-01T07:02:07;17.30;99.90
57026;DHT22;43961;52.940;6.834;2022-08-01T07:04:33;17.30;99.90
57026;DHT22;43961;52.940;6.834;2022-08-01T07:06:59;17.30;99.90
57026;DHT22;43961;52.940;6.834;2022-08-01T07:09:26;17.30;99.90
57026;DHT22;43961;52.940;6.834;2022-08-01T07:11:52;17.30;99.90
57026;DHT22;43961;52.940;6.834;2022-08-01T07:14:19;17.30;99.90
57026;DHT22;43961;52.940;6.834;2022-08-01T07:16:44;17.30;99.90
57026;DHT22;43961;52.940;6.834;2022-08-01T07:19:10;17.30;99.90
57026;DHT22;43961;52.940;6.834;2022-08-01T07:21:36;17.30;99.90
57026;DHT22;43961;52.940;6.834;2022-08-01T07:24:02;17.30;99.90
57026;DHT22;43961;52.940;6.834;2022-08-01T07:26:28;17.30;99.90
57026;DHT22;43961;52.940;6.834;2022-08-01T07:28:57;17.40;99.90
57026;DHT22;43961;52.940;6.834;2022-08-01T07:31:23;17.40;99.90
57026;DHT22;43961;52.940;6.834;2022-08-01T07:33:49;17.50;99.90
57026;DHT22;43961;52.940;6.834;2022-08-01T07:36:16;17.40;99.90
57026;DHT22;43961;52.940;6.834;2022-08-01T07:38:43;17.40;99.90
57026;DHT22;43961;52.940;6.834;2022-08-01T07:41:09;17.40;99.90
57026;DHT22;43961;52.940;6.834;2022-08-01T07:43:34;17.50;99.90
57026;DHT22;43961;52.940;6.834;2022-08-01T07:46:02;17.50;99.90
57026;DHT22;43961;52.940;6.834;2022-08-01T07:48:28;17.60;99.90
57026;DHT22;43961;52.940;6.834;2022-08-01T07:50:54;17.60;99.90
57026;DHT22;43961;52.940;6.834;2022-08-01T07:53:19;17.50;99.90
57026;DHT22;43961;52.940;6.834;2022-08-01T07:55:45;17.50;99.90
57026;DHT22;43961;52.940;6.834;2022-08-01T07:58:11;17.60;99.90
57026;DHT22;43961;52.940;6.834;2022-08-01T08:00:37;17.60;99.90
57026;DHT22;43961;52.940;6.834;2022-08-01T08:03:03;17.60;99.90
57026;DHT22;43961;52.940;6.834;2022-08-01T08:05:29;17.70;99.90
57026;DHT22;43961;52.940;6.834;2022-08-01T08:07:55;17.70;99.90
57026;DHT22;43961;52.940;6.834;2022-08-01T08:10:20;17.80;99.90
57026;DHT22;43961;52.940;6.834;2022-08-01T08:12:46;17.90;99.90
57026;DHT22;43961;52.940;6.834;2022-08-01T08:15:13;17.90;99.90
57026;DHT22;43961;52.940;6.834;2022-08-01T08:17:39;18.00;99.90
57026;DHT22;43961;52.940;6.834;2022-08-01T08:20:06;18.10;99.90
57026;DHT22;43961;52.940;6.834;2022-08-01T08:22:32;18.10;99.90
57026;DHT22;43961;52.940;6.834;2022-08-01T08:24:59;18.10;99.90
57026;DHT22;43961;52.940;6.834;2022-08-01T08:27:25;18.10;99.90
57026;DHT22;43961;52.940;6.834;2022-08-01T08:29:50;18.10;99.90
57026;DHT22;43961;52.940;6.834;2022-08-01T08:32:16;18.10;99.90
57026;DHT22;43961;52.940;6.834;2022-08-01T08:34:42;18.20;99.90
57026;DHT22;43961;52.940;6.834;2022-08-01T08:37:08;18.20;99.90
57026;DHT22;43961;52.940;6.834;2022-08-01T08:39:34;18.20;99.90
57026;DHT22;43961;52.940;6.834;2022-08-01T08:42:00;18.30;99.90
57026;DHT22;43961;52.940;6.834;2022-08-01T08:44:27;18.30;99.90
57026;DHT22;43961;52.940;6.834;2022-08-01T08:46:53;18.40;99.90
57026;DHT22;43961;52.940;6.834;2022-08-01T08:49:29;18.50;99.90
57026;DHT22;43961;52.940;6.834;2022-08-01T08:52:00;18.50;99.90
57026;DHT22;43961;52.940;6.834;2022-08-01T08:54:26;18.60;99.90
57026;DHT22;43961;52.940;6.834;2022-08-01T08:56:53;18.70;99.90
57026;DHT22;43961;52.940;6.834;2022-08-01T08:59:20;18.80;99.90
57026;DHT22;43961;52.940;6.834;2022-08-01T09:01:48;18.80;99.90
57026;DHT22;43961;52.940;6.834;2022-08-01T09:04:14;18.90;99.90
57026;DHT22;43961;52.940;6.834;2022-08-01T09:06:40;19.20;99.90
57026;DHT22;43961;52.940;6.834;2022-08-01T09:09:07;19.50;99.90
57026;DHT22;43961;52.940;6.834;2022-08-01T09:11:34;19.80;99.90
57026;DHT22;43961;52.940;6.834;2022-08-01T09:14:09;20.00;99.90
57026;DHT22;43961;52.940;6.834;2022-08-01T09:16:38;20.30;99.90
57026;DHT22;43961;52.940;6.834;2022-08-01T09:19:14;20.50;99.90
57026;DHT22;43961;52.940;6.834;2022-08-01T09:21:55;20.60;99.90
57026;DHT22;43961;52.940;6.834;2022-08-01T09:24:21;20.80;99.90
57026;DHT22;43961;52.940;6.834;2022-08-01T09:26:47;20.90;99.90
57026;DHT22;43961;52.940;6.834;2022-08-01T09:29:29;21.10;99.90
57026;DHT22;43961;52.940;6.834;2022-08-01T09:31:55;21.20;99.90
57026;DHT22;43961;52.940;6.834;2022-08-01T09:34:29;21.10;99.90
57026;DHT22;43961;52.940;6.834;2022-08-01T09:37:02;21.20;99.90
57026;DHT22;43961;52.940;6.834;2022-08-01T09:39:33;21.30;99.90
57026;DHT22;43961;52.940;6.834;2022-08-01T09:42:20;21.50;99.90
57026;DHT22;43961;52.940;6.834;2022-08-01T09:44:46;21.60;99.90
57026;DHT22;43961;52.940;6.834;2022-08-01T09:47:13;21.80;99.90
57026;DHT22;43961;52.940;6.834;2022-08-01T09:49:40;21.80;99.90
57026;DHT22;43961;52.940;6.834;2022-08-01T09:52:15;21.80;99.90
57026;DHT22;43961;52.940;6.834;2022-08-01T09:54:43;22.00;99.90
57026;DHT22;43961;52.940;6.834;2022-08-01T09:57:14;22.00;99.90
57026;DHT22;43961;52.940;6.834;2022-08-01T09:59:42;22.10;99.90
57026;DHT22;43961;52.940;6.834;2022-08-01T10:02:13;22.20;99.90
57026;DHT22;43961;52.940;6.834;2022-08-01T10:04:51;22.10;99.90
57026;DHT22;43961;52.940;6.834;2022-08-01T10:07:18;22.10;99.90
57026;DHT22;43961;52.940;6.834;2022-08-01T10:09:44;22.00;99.90
57026;DHT22;43961;52.940;6.834;2022-08-01T10:12:12;21.90;99.90
57026;DHT22;43961;52.940;6.834;2022-08-01T10:14:39;22.10;99.90
57026;DHT22;43961;52.940;6.834;2022-08-01T10:17:07;22.20;99.90
57026;DHT22;43961;52.940;6.834;2022-08-01T10:19:34;22.30;99.90
57026;DHT22;43961;52.940;6.834;2022-08-01T10:22:01;22.20;99.90
57026;DHT22;43961;52.940;6.834;2022-08-01T10:24:30;22.30;99.90
57026;DHT22;43961;52.940;6.834;2022-08-01T10:27:02;22.30;99.90
57026;DHT22;43961;52.940;6.834;2022-08-01T10:29:33;22.40;99.90
57026;DHT22;43961;52.940;6.834;2022-08-01T10:32:00;22.10;99.90
57026;DHT22;43961;52.940;6.834;2022-08-01T10:34:27;22.10;99.90
57026;DHT22;43961;52.940;6.834;2022-08-01T10:36:55;22.10;99.90
57026;DHT22;43961;52.940;6.834;2022-08-01T10:39:21;22.30;99.90
57026;DHT22;43961;52.940;6.834;2022-08-01T10:41:47;22.50;99.90
57026;DHT22;43961;52.940;6.834;2022-08-01T10:44:13;22.40;99.90
57026;DHT22;43961;52.940;6.834;2022-08-01T10:46:44;22.30;99.90
57026;DHT22;43961;52.940;6.834;2022-08-01T10:49:14;22.40;99.90
57026;DHT22;43961;52.940;6.834;2022-08-01T10:51:41;22.30;99.90
57026;DHT22;43961;52.940;6.834;2022-08-01T10:54:09;22.50;99.90
57026;DHT22;43961;52.940;6.834;2022-08-01T10:56:54;22.40;99.90
57026;DHT22;43961;52.940;6.834;2022-08-01T10:59:27;22.60;99.90
57026;DHT22;43961;52.940;6.834;2022-08-01T11:02:04;22.60;99.90
57026;DHT22;43961;52.940;6.834;2022-08-01T11:07:23;22.90;99.90
57026;DHT22;43961;52.940;6.834;2022-08-01T11:10:09;22.80;99.90
57026;DHT22;43961;52.940;6.834;2022-08-01T11:12:42;22.70;99.90
57026;DHT22;43961;52.940;6.834;2022-08-01T11:17:39;22.90;99.90
57026;DHT22;43961;52.940;6.834;2022-08-01T11:25:27;22.90;99.90
57026;DHT22;43961;52.940;6.834;2022-08-01T11:30:47;22.80;99.90
57026;DHT22;43961;52.940;6.834;2022-08-01T11:33:15;22.80;99.90
57026;DHT22;43961;52.940;6.834;2022-08-01T11:38:38;22.70;99.90
57026;DHT22;43961;52.940;6.834;2022-08-01T11:41:15;22.70;99.90
57026;DHT22;43961;52.940;6.834;2022-08-01T11:44:04;22.70;99.90
57026;DHT22;43961;52.940;6.834;2022-08-01T11:54:49;22.60;99.90
57026;DHT22;43961;52.940;6.834;2022-08-01T11:57:25;22.70;99.90
57026;DHT22;43961;52.940;6.834;2022-08-01T11:59:56;22.80;99.90
57026;DHT22;43961;52.940;6.834;2022-08-01T12:02:26;22.70;99.90
57026;DHT22;43961;52.940;6.834;2022-08-01T12:05:04;22.80;99.90
57026;DHT22;43961;52.940;6.834;2022-08-01T12:07:32;22.80;99.90
57026;DHT22;43961;52.940;6.834;2022-08-01T12:09:59;22.80;99.90
57026;DHT22;43961;52.940;6.834;2022-08-01T12:12:27;22.80;99.90
57026;DHT22;43961;52.940;6.834;2022-08-01T12:14:56;22.80;99.90
57026;DHT22;43961;52.940;6.834;2022-08-01T12:17:37;22.90;99.90
57026;DHT22;43961;52.940;6.834;2022-08-01T12:20:05;22.90;99.90
57026;DHT22;43961;52.940;6.834;2022-08-01T12:22:31;22.70;99.90
57026;DHT22;43961;52.940;6.834;2022-08-01T12:25:11;22.70;99.90
57026;DHT22;43961;52.940;6.834;2022-08-01T12:27:39;22.70;99.90
57026;DHT22;43961;52.940;6.834;2022-08-01T12:30:07;22.70;99.90
57026;DHT22;43961;52.940;6.834;2022-08-01T12:32:35;22.90;99.90
57026;DHT22;43961;52.940;6.834;2022-08-01T12:35:03;23.00;99.90
57026;DHT22;43961;52.940;6.834;2022-08-01T12:37:29;23.10;99.90
57026;DHT22;43961;52.940;6.834;2022-08-01T12:39:56;23.00;99.90
57026;DHT22;43961;52.940;6.834;2022-08-01T12:42:23;22.90;99.90
57026;DHT22;43961;52.940;6.834;2022-08-01T12:44:51;23.00;99.90
57026;DHT22;43961;52.940;6.834;2022-08-01T12:47:18;22.90;99.90
57026;DHT22;43961;52.940;6.834;2022-08-01T12:49:44;22.80;99.90
57026;DHT22;43961;52.940;6.834;2022-08-01T12:52:11;22.80;99.90
57026;DHT22;43961;52.940;6.834;2022-08-01T12:57:31;22.70;99.90
57026;DHT22;43961;52.940;6.834;2022-08-01T13:02:36;22.80;99.90
57026;DHT22;43961;52.940;6.834;2022-08-01T13:05:04;23.00;99.90
57026;DHT22;43961;52.940;6.834;2022-08-01T13:07:37;23.00;99.90
57026;DHT22;43961;52.940;6.834;2022-08-01T13:10:04;23.00;99.90
57026;DHT22;43961;52.940;6.834;2022-08-01T13:12:30;23.10;99.90
57026;DHT22;43961;52.940;6.834;2022-08-01T13:14:56;23.10;99.90
57026;DHT22;43961;52.940;6.834;2022-08-01T13:17:35;23.20;99.90
57026;DHT22;43961;52.940;6.834;2022-08-01T13:20:04;23.30;99.90
57026;DHT22;43961;52.940;6.834;2022-08-01T13:22:37;23.30;88.10
57026;DHT22;43961;52.940;6.834;2022-08-01T13:25:13;23.40;97.60
57026;DHT22;43961;52.940;6.834;2022-08-01T13:27:39;23.30;92.90
57026;DHT22;43961;52.940;6.834;2022-08-01T13:30:16;23.30;99.90
57026;DHT22;43961;52.940;6.834;2022-08-01T13:32:44;23.50;99.90
57026;DHT22;43961;52.940;6.834;2022-08-01T13:35:21;23.70;97.90
57026;DHT22;43961;52.940;6.834;2022-08-01T13:37:47;23.50;90.90
57026;DHT22;43961;52.940;6.834;2022-08-01T13:40:23;23.70;90.50
57026;DHT22;43961;52.940;6.834;2022-08-01T13:42:49;23.60;89.70
57026;DHT22;43961;52.940;6.834;2022-08-01T13:45:15;23.50;89.40
57026;DHT22;43961;52.940;6.834;2022-08-01T13:47:42;23.10;91.00
57026;DHT22;43961;52.940;6.834;2022-08-01T13:50:07;22.70;91.50
57026;DHT22;43961;52.940;6.834;2022-08-01T13:52:33;22.70;94.90
57026;DHT22;43961;52.940;6.834;2022-08-01T13:54:59;23.00;99.90
57026;DHT22;43961;52.940;6.834;2022-08-01T13:57:25;23.20;99.90
57026;DHT22;43961;52.940;6.834;2022-08-01T13:59:51;23.40;95.70
57026;DHT22;43961;52.940;6.834;2022-08-01T14:02:17;23.60;96.50
57026;DHT22;43961;52.940;6.834;2022-08-01T14:04:43;23.70;95.20
57026;DHT22;43961;52.940;6.834;2022-08-01T14:07:08;23.90;91.50
57026;DHT22;43961;52.940;6.834;2022-08-01T14:09:34;23.80;86.70
57026;DHT22;43961;52.940;6.834;2022-08-01T14:12:00;23.80;89.00
57026;DHT22;43961;52.940;6.834;2022-08-01T14:14:25;23.80;87.10
57026;DHT22;43961;52.940;6.834;2022-08-01T14:16:51;23.80;87.20
57026;DHT22;43961;52.940;6.834;2022-08-01T14:19:17;23.80;84.20
57026;DHT22;43961;52.940;6.834;2022-08-01T14:21:43;23.80;86.60
57026;DHT22;43961;52.940;6.834;2022-08-01T14:24:08;23.60;86.40
57026;DHT22;43961;52.940;6.834;2022-08-01T14:26:35;23.80;91.70
57026;DHT22;43961;52.940;6.834;2022-08-01T14:29:01;23.50;90.10
57026;DHT22;43961;52.940;6.834;2022-08-01T14:31:26;23.30;83.40
57026;DHT22;43961;52.940;6.834;2022-08-01T14:33:52;23.10;86.70
57026;DHT22;43961;52.940;6.834;2022-08-01T14:36:18;23.10;86.60
57026;DHT22;43961;52.940;6.834;2022-08-01T14:38:43;22.90;82.50
57026;DHT22;43961;52.940;6.834;2022-08-01T14:41:09;22.90;86.20
57026;DHT22;43961;52.940;6.834;2022-08-01T14:43:35;22.80;87.20
57026;DHT22;43961;52.940;6.834;2022-08-01T14:46:01;22.70;90.40
57026;DHT22;43961;52.940;6.834;2022-08-01T14:48:28;22.70;91.70
57026;DHT22;43961;52.940;6.834;2022-08-01T14:50:54;22.70;94.20
57026;DHT22;43961;52.940;6.834;2022-08-01T14:53:19;22.80;90.80
57026;DHT22;43961;52.940;6.834;2022-08-01T14:55:45;22.70;91.60
57026;DHT22;43961;52.940;6.834;2022-08-01T14:58:11;22.80;91.30
57026;DHT22;43961;52.940;6.834;2022-08-01T15:00:39;22.80;89.20
57026;DHT22;43961;52.940;6.834;2022-08-01T15:03:04;22.80;90.20
57026;DHT22;43961;52.940;6.834;2022-08-01T15:05:30;22.80;90.40
57026;DHT22;43961;52.940;6.834;2022-08-01T15:07:57;22.90;90.10
57026;DHT22;43961;52.940;6.834;2022-08-01T15:10:23;22.90;88.10
57026;DHT22;43961;52.940;6.834;2022-08-01T15:12:48;22.80;85.50
57026;DHT22;43961;52.940;6.834;2022-08-01T15:15:14;22.70;84.50
57026;DHT22;43961;52.940;6.834;2022-08-01T15:17:40;22.60;81.30
57026;DHT22;43961;52.940;6.834;2022-08-01T15:20:07;22.70;77.60
57026;DHT22;43961;52.940;6.834;2022-08-01T15:22:33;22.70;82.70
57026;DHT22;43961;52.940;6.834;2022-08-01T15:25:03;22.70;82.90
57026;DHT22;43961;52.940;6.834;2022-08-01T15:27:29;22.60;82.80
57026;DHT22;43961;52.940;6.834;2022-08-01T15:29:55;22.70;88.00
57026;DHT22;43961;52.940;6.834;2022-08-01T15:32:21;22.80;86.80
57026;DHT22;43961;52.940;6.834;2022-08-01T15:34:47;22.90;78.10
57026;DHT22;43961;52.940;6.834;2022-08-01T15:37:14;22.80;77.20
57026;DHT22;43961;52.940;6.834;2022-08-01T15:39:40;22.70;76.70
57026;DHT22;43961;52.940;6.834;2022-08-01T15:42:12;22.60;78.50
57026;DHT22;43961;52.940;6.834;2022-08-01T15:44:38;22.40;81.70
57026;DHT22;43961;52.940;6.834;2022-08-01T15:47:04;22.50;84.90
57026;DHT22;43961;52.940;6.834;2022-08-01T15:49:32;22.40;79.90
57026;DHT22;43961;52.940;6.834;2022-08-01T15:51:59;22.40;81.40
57026;DHT22;43961;52.940;6.834;2022-08-01T15:54:25;22.50;80.00
57026;DHT22;43961;52.940;6.834;2022-08-01T15:56:51;22.60;85.10
57026;DHT22;43961;52.940;6.834;2022-08-01T15:59:17;22.50;81.00
57026;DHT22;43961;52.940;6.834;2022-08-01T16:01:42;22.50;81.80
57026;DHT22;43961;52.940;6.834;2022-08-01T16:04:10;22.50;82.20
57026;DHT22;43961;52.940;6.834;2022-08-01T16:06:37;22.50;77.40
57026;DHT22;43961;52.940;6.834;2022-08-01T16:09:04;22.50;81.90
57026;DHT22;43961;52.940;6.834;2022-08-01T16:11:30;22.40;80.40
57026;DHT22;43961;52.940;6.834;2022-08-01T16:13:56;22.30;82.00